Time;durP1;ratioP1;P1;durP2;ratioP2;P2;SDS_P1;SDS_P2;PMS_P1;PMS_P2;Temp;Humidity;BMP_temperature;BMP_pressure;BME280_temperature;BME280_humidity;BME280_pressure;Samples;Min_cycle;Max_cycle;Signal;HPM_P1;HPM_P2
2023/06/12 00:02:02;;;;;;;;;;;;;;;;;;5034355;28;19912;-83
2023/06/12 00:04:29;;;;;;;;;;;;;;;;;;5051128;28;20375;-83
2023/06/12 00:06:56;;;;;;;;;;;;;;;;;;5052802;28;19921;-83
2023/06/12 00:09:21;;;;;;;;;;;;;;;;;;5050915;28;19932;-84
2023/06/12 00:11:46;;;;;;;;;;;;;;;;;;5053700;28;20377;-84
2023/06/12 00:14:11;;;;;;;;;;;;;;;;;;5055199;28;19931;-83
2023/06/12 00:16:37;;;;;;;;;;;;;;;;;;5055471;28;19943;-83
2023/06/12 00:19:03;;;;;;;;;;;;;;;;;;5055041;28;19925;-83
2023/06/12 00:21:28;;;;;;;;;;;;;;;;;;5071332;28;19920;-84
2023/06/12 00:23:54;;;;;;;;;;;;;;;;;;5056250;28;19913;-83
2023/06/12 00:26:19;;;;;;;;;;;;;;;;;;5064591;28;20379;-82
2023/06/12 00:28:45;;;;;;;;;;;;;;;;;;5054552;28;19913;-83
2023/06/12 00:31:10;;;;;;;;;;;;;;;;;;5079464;28;20349;-83
2023/06/12 00:33:36;;;;;;;;;;;;;;;;;;5055100;28;19909;-83
2023/06/12 00:36:02;;;;;;;;;;;;;;;;;;5056113;28;19916;-83
2023/06/12 00:38:27;;;;;;;;;;;;;;;;;;5051451;28;20318;-83
2023/06/12 00:40:52;;;;;;;;;;;;;;;;;;5055152;28;19918;-83
2023/06/12 00:43:18;;;;;;;;;;;;;;;;;;5055979;28;19909;-83
2023/06/12 00:45:43;;;;;;;;;;;;;;;;;;5068899;28;19917;-83
2023/06/12 00:48:08;;;;;;;;;;;;;;;;;;5049345;28;19963;-83
2023/06/12 00:50:34;;;;;;;;;;;;;;;;;;5054467;28;19917;-83
2023/06/12 00:52:59;;;;;;;;;;;;;;;;;;5056068;28;19978;-83
2023/06/12 00:55:25;;;;;;;;;;;;;;;;;;5056007;28;19917;-82
2023/06/12 00:57:51;;;;;;;;;;;;;;;;;;5055046;28;19909;-83
2023/06/12 01:00:17;;;;;;;;;;;;;;;;;;5071933;28;19913;-83
2023/06/12 01:02:42;;;;;;;;;;;;;;;;;;5038302;28;19909;-83
2023/06/12 01:05:10;;;;;;;;;;;;;;;;;;5054791;28;20327;-84
2023/06/12 01:07:36;;;;;;;;;;;;;;;;;;5055156;28;19916;-83
2023/06/12 01:10:03;;;;;;;;;;;;;;;;;;5071863;28;19912;-83
2023/06/12 01:12:29;;;;;;;;;;;;;;;;;;5071335;28;19908;-84
2023/06/12 01:14:54;;;;;;;;;;;;;;;;;;5064025;28;20700;-84
2023/06/12 01:17:20;;;;;;;;;;;;;;;;;;5053779;28;19909;-84
2023/06/12 01:19:45;;;;;;;;;;;;;;;;;;5070814;28;20307;-84
2023/06/12 01:22:11;;;;;;;;;;;;;;;;;;5054269;28;19909;-84
2023/06/12 01:24:36;;;;;;;;;;;;;;;;;;5056374;28;19912;-84
2023/06/12 01:27:03;;;;;;;;;;;;;;;;;;5067052;28;20015;-83
2023/06/12 01:29:29;;;;;;;;;;;;;;;;;;5047094;28;19912;-83
2023/06/12 01:31:59;;;;;;;;;;;;;;;;;;5038199;28;19919;-84
2023/06/12 01:34:26;;;;;;;;;;;;;;;;;;5058283;28;19999;-83
2023/06/12 01:36:51;;;;;;;;;;;;;;;;;;5053021;28;19939;-83
2023/06/12 01:39:17;;;;;;;;;;;;;;;;;;5058001;28;19958;-84
2023/06/12 01:41:42;;;;;;;;;;;;;;;;;;5054973;28;19909;-82
2023/06/12 01:44:08;;;;;;;;;;;;;;;;;;5070963;28;19912;-83
2023/06/12 01:46:33;;;;;;;;;;;;;;;;;;5061522;28;20393;-83
2023/06/12 01:48:59;;;;;;;;;;;;;;;;;;5050167;28;19968;-84
2023/06/12 01:51:24;;;;;;;;;;;;;;;;;;5055838;28;19963;-84
2023/06/12 01:53:50;;;;;;;;;;;;;;;;;;5052595;28;20364;-83
2023/06/12 01:56:17;;;;;;;;;;;;;;;;;;5054356;28;20334;-83
2023/06/12 01:58:42;;;;;;;;;;;;;;;;;;5052982;28;20410;-83
2023/06/12 02:01:15;;;;;;;;;;;;;;;;;;5053530;28;19909;-83
2023/06/12 02:03:41;;;;;;;;;;;;;;;;;;5048994;28;20055;-83
2023/06/12 02:06:06;;;;;;;;;;;;;;;;;;5033869;28;20419;-84
2023/06/12 02:08:32;;;;;;;;;;;;;;;;;;5070419;28;19919;-83
2023/06/12 02:10:57;;;;;;;;;;;;;;;;;;5071480;28;19915;-83
2023/06/12 02:13:23;;;;;;;;;;;;;;;;;;5064768;28;19935;-84
2023/06/12 02:15:49;;;;;;;;;;;;;;;;;;5069921;28;19909;-83
2023/06/12 02:18:15;;;;;;;;;;;;;;;;;;5036464;28;19978;-84
2023/06/12 02:20:42;;;;;;;;;;;;;;;;;;5052773;28;19908;-84
2023/06/12 02:23:08;;;;;;;;;;;;;;;;;;5062330;28;20539;-84
2023/06/12 02:25:33;;;;;;;;;;;;;;;;;;5056716;28;19913;-84
2023/06/12 02:27:59;;;;;;;;;;;;;;;;;;5038165;28;19922;-84
2023/06/12 02:30:24;;;;;;;;;;;;;;;;;;5053775;28;20390;-84
2023/06/12 02:32:50;;;;;;;;;;;;;;;;;;5036897;28;20261;-84
2023/06/12 02:35:15;;;;;;;;;;;;;;;;;;5052127;28;20431;-83
2023/06/12 02:37:42;;;;;;;;;;;;;;;;;;5047929;28;19999;-84
2023/06/12 02:40:08;;;;;;;;;;;;;;;;;;5061283;28;19959;-84
2023/06/12 02:42:33;;;;;;;;;;;;;;;;;;5052757;28;19912;-84
2023/06/12 02:44:59;;;;;;;;;;;;;;;;;;5051128;28;19944;-84
2023/06/12 02:47:24;;;;;;;;;;;;;;;;;;5053160;28;20287;-84
2023/06/12 02:49:49;;;;;;;;;;;;;;;;;;5036552;28;19912;-84
2023/06/12 02:52:21;;;;;;;;;;;;;;;;;;5050990;28;20379;-83
2023/06/12 02:54:46;;;;;;;;;;;;;;;;;;5052329;28;19920;-83
2023/06/12 02:57:11;;;;;;;;;;;;;;;;;;5053350;28;19959;-83
2023/06/12 02:59:37;;;;;;;;;;;;;;;;;;5053571;28;19967;-83
2023/06/12 03:02:08;;;;;;;;;;;;;;;;;;5037318;28;20363;-83
2023/06/12 03:04:40;;;;;;;;;;;;;;;;;;5034892;28;19965;-84
2023/06/12 03:07:06;;;;;;;;;;;;;;;;;;5069385;28;19916;-84
2023/06/12 03:09:35;;;;;;;;;;;;;;;;;;5068587;28;20439;-84
2023/06/12 03:12:01;;;;;;;;;;;;;;;;;;5052064;28;19920;-84
2023/06/12 03:14:28;;;;;;;;;;;;;;;;;;5053541;28;20283;-84
2023/06/12 03:16:54;;;;;;;;;;;;;;;;;;5047990;28;19938;-84
2023/06/12 03:19:19;;;;;;;;;;;;;;;;;;5030588;28;19948;-84
2023/06/12 03:21:44;;;;;;;;;;;;;;;;;;5070046;28;19970;-84
2023/06/12 03:24:10;;;;;;;;;;;;;;;;;;5052737;28;19947;-84
2023/06/12 03:26:35;;;;;;;;;;;;;;;;;;5064357;28;19975;-84
2023/06/12 03:29:01;;;;;;;;;;;;;;;;;;5051665;28;19909;-84
2023/06/12 03:31:27;;;;;;;;;;;;;;;;;;5068176;28;19970;-84
2023/06/12 03:33:53;;;;;;;;;;;;;;;;;;5046275;28;19909;-83
2023/06/12 03:36:18;;;;;;;;;;;;;;;;;;5040791;28;19913;-84
2023/06/12 03:38:44;;;;;;;;;;;;;;;;;;5050329;28;19916;-84
2023/06/12 03:41:10;;;;;;;;;;;;;;;;;;5035913;28;19919;-84
2023/06/12 03:43:36;;;;;;;;;;;;;;;;;;5052130;28;19909;-84
2023/06/12 03:46:01;;;;;;;;;;;;;;;;;;5051244;28;20363;-84
2023/06/12 03:48:27;;;;;;;;;;;;;;;;;;5053147;28;20466;-83
2023/06/12 03:50:52;;;;;;;;;;;;;;;;;;5051900;28;19919;-84
2023/06/12 03:53:17;;;;;;;;;;;;;;;;;;5051550;28;19912;-84
2023/06/12 03:55:43;;;;;;;;;;;;;;;;;;5052313;28;19971;-83
2023/06/12 03:58:08;;;;;;;;;;;;;;;;;;5051150;28;19909;-83
2023/06/12 04:00:34;;;;;;;;;;;;;;;;;;5051206;28;19990;-82
2023/06/12 04:03:01;;;;;;;;;;;;;;;;;;5051223;28;19917;-83
2023/06/12 04:05:26;;;;;;;;;;;;;;;;;;5054346;28;19939;-85
2023/06/12 04:07:52;;;;;;;;;;;;;;;;;;5055782;28;20372;-84
2023/06/12 04:10:17;;;;;;;;;;;;;;;;;;5068278;28;20011;-84
2023/06/12 04:12:42;;;;;;;;;;;;;;;;;;5068290;28;19908;-84
2023/06/12 04:15:08;;;;;;;;;;;;;;;;;;5051485;28;19973;-82
2023/06/12 04:17:34;;;;;;;;;;;;;;;;;;5050579;28;19932;-83
2023/06/12 04:20:01;;;;;;;;;;;;;;;;;;5068119;28;19923;-84
2023/06/12 04:22:27;;;;;;;;;;;;;;;;;;5052515;28;19962;-83
2023/06/12 04:24:53;;;;;;;;;;;;;;;;;;5053222;28;20374;-84
2023/06/12 04:27:19;;;;;;;;;;;;;;;;;;5047628;28;19909;-84
2023/06/12 04:29:45;;;;;;;;;;;;;;;;;;5061542;28;19948;-85
2023/06/12 04:32:13;;;;;;;;;;;;;;;;;;5051252;28;19915;-84
2023/06/12 04:34:43;;;;;;;;;;;;;;;;;;5068035;28;20296;-85
2023/06/12 04:37:09;;;;;;;;;;;;;;;;;;5041110;28;19919;-84
2023/06/12 04:39:34;;;;;;;;;;;;;;;;;;5051905;28;20106;-84
2023/06/12 04:41:59;;;;;;;;;;;;;;;;;;5034292;28;19919;-84
2023/06/12 04:44:30;;;;;;;;;;;;;;;;;;5051414;28;19913;-84
2023/06/12 04:47:00;;;;;;;;;;;;;;;;;;5050440;28;20276;-84
2023/06/12 04:49:27;;;;;;;;;;;;;;;;;;5051445;28;20720;-84
2023/06/12 04:51:52;;;;;;;;;;;;;;;;;;5051345;28;19999;-84
2023/06/12 04:54:19;;;;;;;;;;;;;;;;;;5051340;28;19913;-84
2023/06/12 04:56:44;;;;;;;;;;;;;;;;;;5064140;28;19909;-84
2023/06/12 04:59:10;;;;;;;;;;;;;;;;;;5048683;28;19920;-84
2023/06/12 05:01:38;;;;;;;;;;;;;;;;;;5066173;28;19909;-84
2023/06/12 05:04:04;;;;;;;;;;;;;;;;;;5049087;28;19931;-85
2023/06/12 05:06:30;;;;;;;;;;;;;;;;;;5072148;28;19892;-84
2023/06/12 05:08:56;;;;;;;;;;;;;;;;;;5071315;28;19916;-84
2023/06/12 05:11:22;;;;;;;;;;;;;;;;;;5056047;28;20398;-84
2023/06/12 05:13:47;;;;;;;;;;;;;;;;;;5054404;28;19912;-84
2023/06/12 05:16:13;;;;;;;;;;;;;;;;;;5068419;28;19955;-84
2023/06/12 05:18:38;;;;;;;;;;;;;;;;;;5055775;28;19963;-85
2023/06/12 05:21:04;;;;;;;;;;;;;;;;;;5059844;28;19956;-83
2023/06/12 05:23:29;;;;;;;;;;;;;;;;;;5054709;28;19966;-83
2023/06/12 05:25:54;;;;;;;;;;;;;;;;;;5033362;28;19924;-84
2023/06/12 05:28:20;;;;;;;;;;;;;;;;;;5054253;28;20405;-84
2023/06/12 05:30:47;;;;;;;;;;;;;;;;;;5070626;28;20362;-83
2023/06/12 05:33:12;;;;;;;;;;;;;;;;;;5053830;28;19912;-83
2023/06/12 05:35:38;;;;;;;;;;;;;;;;;;5036594;28;20047;-83
2023/06/12 05:38:03;;;;;;;;;;;;;;;;;;5049838;28;19920;-84
2023/06/12 05:40:29;;;;;;;;;;;;;;;;;;5053091;28;19963;-85
2023/06/12 05:42:59;;;;;;;;;;;;;;;;;;5070889;28;19917;-84
2023/06/12 05:45:24;;;;;;;;;;;;;;;;;;5054098;28;19921;-84
2023/06/12 05:47:50;;;;;;;;;;;;;;;;;;5054300;28;19923;-85
2023/06/12 05:50:15;;;;;;;;;;;;;;;;;;5054005;28;20426;-84
2023/06/12 05:52:41;;;;;;;;;;;;;;;;;;5055774;28;20333;-85
2023/06/12 05:55:07;;;;;;;;;;;;;;;;;;5053767;28;19909;-85
2023/06/12 05:57:33;;;;;;;;;;;;;;;;;;5037618;28;19963;-86
2023/06/12 05:59:58;;;;;;;;;;;;;;;;;;5053994;28;19909;-84
2023/06/12 06:02:24;;;;;;;;;;;;;;;;;;5047815;28;19995;-85
2023/06/12 06:04:54;;;;;;;;;;;;;;;;;;5051892;28;20395;-85
2023/06/12 06:07:20;;;;;;;;;;;;;;;;;;5054039;28;19962;-84
2023/06/12 06:09:46;;;;;;;;;;;;;;;;;;5063399;28;19909;-83
2023/06/12 06:12:12;;;;;;;;;;;;;;;;;;5047817;28;19921;-83
2023/06/12 06:14:37;;;;;;;;;;;;;;;;;;5054345;28;19916;-83
2023/06/12 06:17:03;;;;;;;;;;;;;;;;;;5053209;28;19913;-85
2023/06/12 06:19:30;;;;;;;;;;;;;;;;;;5054470;28;19929;-85
2023/06/12 06:21:56;;;;;;;;;;;;;;;;;;5065157;28;19935;-83
2023/06/12 06:24:21;;;;;;;;;;;;;;;;;;5069676;28;19913;-84
2023/06/12 06:26:47;;;;;;;;;;;;;;;;;;5051204;28;19916;-86
2023/06/12 06:29:13;;;;;;;;;;;;;;;;;;5070142;28;19928;-79
2023/06/12 06:31:38;;;;;;;;;;;;;;;;;;5050243;28;20715;-82
2023/06/12 06:34:04;;;;;;;;;;;;;;;;;;5051087;28;19982;-81
2023/06/12 06:36:29;;;;;;;;;;;;;;;;;;5051170;28;19919;-81
2023/06/12 06:38:55;;;;;;;;;;;;;;;;;;5033711;28;19920;-82
2023/06/12 06:41:21;;;;;;;;;;;;;;;;;;5066656;28;19920;-79
2023/06/12 06:43:47;;;;;;;;;;;;;;;;;;5035622;28;20343;-84
2023/06/12 06:46:13;;;;;;;;;;;;;;;;;;5068117;28;19917;-83
2023/06/12 06:48:39;;;;;;;;;;;;;;;;;;5061446;28;20314;-84
2023/06/12 06:51:04;;;;;;;;;;;;;;;;;;5058345;28;20001;-84
2023/06/12 06:53:31;;;;;;;;;;;;;;;;;;5035131;28;19908;-82
2023/06/12 06:55:57;;;;;;;;;;;;;;;;;;5052093;28;19912;-81
2023/06/12 06:58:22;;;;;;;;;;;;;;;;;;5067643;28;20387;-82
2023/06/12 07:00:48;;;;;;;;;;;;;;;;;;5050582;28;20375;-82
2023/06/12 07:03:14;;;;;;;;;;;;;;;;;;5047819;28;19916;-85
2023/06/12 07:05:40;;;;;;;;;;;;;;;;;;5047969;28;19916;-85
2023/06/12 07:08:07;;;;;;;;;;;;;;;;;;5035526;28;19913;-84
2023/06/12 07:10:34;;;;;;;;;;;;;;;;;;5048523;28;20364;-88
2023/06/12 07:13:01;;;;;;;;;;;;;;;;;;5056947;28;19913;-85
2023/06/12 07:15:34;;;;;;;;;;;;;;;;;;5068454;28;19966;-85
2023/06/12 07:17:59;;;;;;;;;;;;;;;;;;5061811;28;20326;-85
2023/06/12 07:20:25;;;;;;;;;;;;;;;;;;5048011;28;19967;-84
2023/06/12 07:22:50;;;;;;;;;;;;;;;;;;5065374;28;19920;-85
2023/06/12 07:25:15;;;;;;;;;;;;;;;;;;5034660;28;19920;-85
2023/06/12 07:27:41;;;;;;;;;;;;;;;;;;5068148;28;19935;-85
2023/06/12 07:30:06;;;;;;;;;;;;;;;;;;5068213;28;20011;-84
2023/06/12 07:32:32;;;;;;;;;;;;;;;;;;5068841;28;19920;-86
2023/06/12 07:34:58;;;;;;;;;;;;;;;;;;5059736;28;20323;-85
2023/06/12 07:37:23;;;;;;;;;;;;;;;;;;5049999;28;19913;-85
2023/06/12 07:39:50;;;;;;;;;;;;;;;;;;5050298;28;20368;-85
2023/06/12 07:42:15;;;;;;;;;;;;;;;;;;5067509;28;19999;-85
2023/06/12 07:44:42;;;;;;;;;;;;;;;;;;5050922;28;20291;-86
2023/06/12 07:47:07;;;;;;;;;;;;;;;;;;5060619;28;19920;-87
2023/06/12 07:49:33;;;;;;;;;;;;;;;;;;5067271;28;19908;-85
2023/06/12 07:51:58;;;;;;;;;;;;;;;;;;5034260;28;20025;-84
2023/06/12 07:54:23;;;;;;;;;;;;;;;;;;5065521;28;19932;-84
2023/06/12 07:56:51;;;;;;;;;;;;;;;;;;5050756;28;20427;-84
2023/06/12 07:59:17;;;;;;;;;;;;;;;;;;5066893;28;20000;-83
2023/06/12 08:01:49;;;;;;;;;;;;;;;;;;5056504;28;19929;-86
2023/06/12 08:04:17;;;;;;;;;;;;;;;;;;5065647;28;19912;-85
2023/06/12 08:06:44;;;;;;;;;;;;;;;;;;5066649;28;20003;-85
2023/06/12 08:09:10;;;;;;;;;;;;;;;;;;5063603;28;20011;-85
2023/06/12 08:11:35;;;;;;;;;;;;;;;;;;5062473;28;19917;-86
2023/06/12 08:14:01;;;;;;;;;;;;;;;;;;5048260;28;20361;-86
2023/06/12 08:16:28;;;;;;;;;;;;;;;;;;5066925;28;20074;-86
2023/06/12 08:18:55;;;;;;;;;;;;;;;;;;5047855;28;19925;-85
2023/06/12 08:21:25;;;;;;;;;;;;;;;;;;5033512;28;20007;-86
2023/06/12 08:23:50;;;;;;;;;;;;;;;;;;5069344;28;20021;-86
2023/06/12 08:26:16;;;;;;;;;;;;;;;;;;5066644;28;19913;-87
2023/06/12 08:28:41;;;;;;;;;;;;;;;;;;5056890;28;19982;-86
2023/06/12 08:31:12;;;;;;;;;;;;;;;;;;5033627;28;19998;-86
2023/06/12 08:33:38;;;;;;;;;;;;;;;;;;5069585;28;19943;-85
2023/06/12 08:36:04;;;;;;;;;;;;;;;;;;5070153;28;19913;-85
2023/06/12 08:38:30;;;;;;;;;;;;;;;;;;5035699;28;19927;-84
2023/06/12 08:40:55;;;;;;;;;;;;;;;;;;5070050;28;19912;-85
2023/06/12 08:43:20;;;;;;;;;;;;;;;;;;5053392;28;20272;-85
2023/06/12 08:45:46;;;;;;;;;;;;;;;;;;5069011;28;19920;-84
2023/06/12 08:48:11;;;;;;;;;;;;;;;;;;5054651;28;20350;-87
2023/06/12 08:50:36;;;;;;;;;;;;;;;;;;5053528;28;19919;-86
2023/06/12 08:53:03;;;;;;;;;;;;;;;;;;5055579;28;19970;-85
2023/06/12 08:55:28;;;;;;;;;;;;;;;;;;5069300;28;19909;-85
2023/06/12 08:57:54;;;;;;;;;;;;;;;;;;5054418;28;19916;-86
2023/06/12 09:00:19;;;;;;;;;;;;;;;;;;5052920;28;20011;-83
2023/06/12 09:02:47;;;;;;;;;;;;;;;;;;5052487;28;19917;-85
2023/06/12 09:05:13;;;;;;;;;;;;;;;;;;5054288;28;19913;-85
2023/06/12 09:07:39;;;;;;;;;;;;;;;;;;5054763;28;19920;-85
2023/06/12 09:10:04;;;;;;;;;;;;;;;;;;5054602;28;20015;-85
2023/06/12 09:12:30;;;;;;;;;;;;;;;;;;5050724;28;20004;-85
2023/06/12 09:14:55;;;;;;;;;;;;;;;;;;5054440;28;19948;-86
2023/06/12 09:17:20;;;;;;;;;;;;;;;;;;5053523;28;19924;-85
2023/06/12 09:19:46;;;;;;;;;;;;;;;;;;5054785;28;19917;-86
2023/06/12 09:22:11;;;;;;;;;;;;;;;;;;5053316;28;20291;-86
2023/06/12 09:24:37;;;;;;;;;;;;;;;;;;5053956;28;20303;-86
2023/06/12 09:27:02;;;;;;;;;;;;;;;;;;5053603;28;21021;-86
2023/06/12 09:29:27;;;;;;;;;;;;;;;;;;5054296;28;20410;-87
2023/06/12 09:31:53;;;;;;;;;;;;;;;;;;5053973;28;20526;-86
2023/06/12 09:34:18;;;;;;;;;;;;;;;;;;5054374;28;19908;-86
2023/06/12 09:36:43;;;;;;;;;;;;;;;;;;5052444;28;19912;-87
2023/06/12 09:39:09;;;;;;;;;;;;;;;;;;5052179;28;20003;-86
2023/06/12 09:41:35;;;;;;;;;;;;;;;;;;5053824;28;20417;-86
2023/06/12 09:44:01;;;;;;;;;;;;;;;;;;5052289;28;20330;-86
2023/06/12 09:46:26;;;;;;;;;;;;;;;;;;5053321;28;19951;-86
2023/06/12 09:48:51;;;;;;;;;;;;;;;;;;5052927;28;19947;-86
2023/06/12 09:51:17;;;;;;;;;;;;;;;;;;5053302;28;19919;-86
2023/06/12 09:53:42;;;;;;;;;;;;;;;;;;5053665;28;19962;-85
2023/06/12 09:56:07;;;;;;;;;;;;;;;;;;5052845;28;20014;-85
2023/06/12 09:58:33;;;;;;;;;;;;;;;;;;5053365;28;19962;-85
2023/06/12 10:00:58;;;;;;;;;;;;;;;;;;5052070;28;19974;-85
2023/06/12 10:03:24;;;;;;;;;;;;;;;;;;5053472;28;19970;-85
2023/06/12 10:05:49;;;;;;;;;;;;;;;;;;5052177;28;19920;-85
2023/06/12 10:08:16;;;;;;;;;;;;;;;;;;5052758;28;19913;-85
2023/06/12 10:10:41;;;;;;;;;;;;;;;;;;5052620;28;19893;-85
2023/06/12 10:13:07;;;;;;;;;;;;;;;;;;5054107;28;19916;-85
2023/06/12 10:15:32;;;;;;;;;;;;;;;;;;5053150;28;19935;-85
2023/06/12 10:17:57;;;;;;;;;;;;;;;;;;5052568;28;19925;-85
2023/06/12 10:20:23;;;;;;;;;;;;;;;;;;5053071;28;19912;-86
2023/06/12 10:22:48;;;;;;;;;;;;;;;;;;5069553;28;19908;-87
2023/06/12 10:25:13;;;;;;;;;;;;;;;;;;5053637;28;19940;-86
2023/06/12 10:27:39;;;;;;;;;;;;;;;;;;5052789;28;19908;-86
2023/06/12 10:30:04;;;;;;;;;;;;;;;;;;5052716;28;19932;-85
2023/06/12 10:32:31;;;;;;;;;;;;;;;;;;5054024;28;19934;-86
2023/06/12 10:34:56;;;;;;;;;;;;;;;;;;5053881;28;19920;-86
2023/06/12 10:37:22;;;;;;;;;;;;;;;;;;5052529;28;19909;-85
2023/06/12 10:39:47;;;;;;;;;;;;;;;;;;5052842;28;19913;-85
2023/06/12 10:42:13;;;;;;;;;;;;;;;;;;5053409;28;19916;-85
2023/06/12 10:44:38;;;;;;;;;;;;;;;;;;5052956;28;19976;-85
2023/06/12 10:47:04;;;;;;;;;;;;;;;;;;5053567;28;19912;-86
2023/06/12 10:49:29;;;;;;;;;;;;;;;;;;5051434;28;20326;-86
2023/06/12 10:51:54;;;;;;;;;;;;;;;;;;5052426;28;19912;-86
2023/06/12 10:54:20;;;;;;;;;;;;;;;;;;5050429;28;19959;-86
2023/06/12 10:56:46;;;;;;;;;;;;;;;;;;5052618;28;19908;-86
2023/06/12 10:59:11;;;;;;;;;;;;;;;;;;5052603;28;19936;-86
2023/06/12 11:01:37;;;;;;;;;;;;;;;;;;5051496;28;20017;-86
2023/06/12 11:04:02;;;;;;;;;;;;;;;;;;5051198;28;19927;-86
2023/06/12 11:06:28;;;;;;;;;;;;;;;;;;5051891;28;19913;-84
2023/06/12 11:08:54;;;;;;;;;;;;;;;;;;5052360;28;19920;-86
2023/06/12 11:11:19;;;;;;;;;;;;;;;;;;5053915;28;20383;-86
2023/06/12 11:13:45;;;;;;;;;;;;;;;;;;5053211;28;19927;-86
2023/06/12 11:16:10;;;;;;;;;;;;;;;;;;5053038;28;19916;-86
2023/06/12 11:18:35;;;;;;;;;;;;;;;;;;5052850;28;20073;-86
2023/06/12 11:21:01;;;;;;;;;;;;;;;;;;5052471;28;19909;-87
2023/06/12 11:23:26;;;;;;;;;;;;;;;;;;5052917;28;19920;-84
2023/06/12 11:25:52;;;;;;;;;;;;;;;;;;5052831;28;19912;-85
2023/06/12 11:28:19;;;;;;;;;;;;;;;;;;5052173;28;19913;-85
2023/06/12 11:30:45;;;;;;;;;;;;;;;;;;5052085;28;19913;-85
2023/06/12 11:33:12;;;;;;;;;;;;;;;;;;5051563;28;19920;-86
2023/06/12 11:35:37;;;;;;;;;;;;;;;;;;5053274;28;19915;-86
2023/06/12 11:38:05;;;;;;;;;;;;;;;;;;5053472;28;19912;-83
2023/06/12 11:40:30;;;;;;;;;;;;;;;;;;5053800;28;19909;-85
2023/06/12 11:42:56;;;;;;;;;;;;;;;;;;5053685;28;19919;-85
2023/06/12 11:45:21;;;;;;;;;;;;;;;;;;5053338;28;19913;-84
2023/06/12 11:47:47;;;;;;;;;;;;;;;;;;5053892;28;19924;-84
2023/06/12 11:50:12;;;;;;;;;;;;;;;;;;5053198;28;19908;-85
2023/06/12 11:52:37;;;;;;;;;;;;;;;;;;5052875;28;19967;-85
2023/06/12 11:55:02;;;;;;;;;;;;;;;;;;5055197;28;19961;-85
2023/06/12 11:57:28;;;;;;;;;;;;;;;;;;5069212;28;20345;-85
2023/06/12 11:59:56;;;;;;;;;;;;;;;;;;5051931;28;19935;-85
2023/06/12 12:02:21;;;;;;;;;;;;;;;;;;5052307;28;19913;-85
2023/06/12 12:04:46;;;;;;;;;;;;;;;;;;5052000;28;19930;-85
2023/06/12 12:07:12;;;;;;;;;;;;;;;;;;5052013;28;19913;-85
2023/06/12 12:09:38;;;;;;;;;;;;;;;;;;5053633;28;19912;-84
2023/06/12 12:12:03;;;;;;;;;;;;;;;;;;5054880;28;20287;-85
2023/06/12 12:14:29;;;;;;;;;;;;;;;;;;5054099;28;19913;-85
2023/06/12 12:16:54;;;;;;;;;;;;;;;;;;5055650;28;19923;-85
2023/06/12 12:19:25;;;;;;;;;;;;;;;;;;5054796;28;19929;-85
2023/06/12 12:21:51;;;;;;;;;;;;;;;;;;5053507;28;19912;-85
2023/06/12 12:24:16;;;;;;;;;;;;;;;;;;5054663;28;19908;-85
2023/06/12 12:26:41;;;;;;;;;;;;;;;;;;5054376;28;19916;-85
2023/06/12 12:29:07;;;;;;;;;;;;;;;;;;5054604;28;19912;-85
2023/06/12 12:31:32;;;;;;;;;;;;;;;;;;5055419;28;19971;-85
2023/06/12 12:33:57;;;;;;;;;;;;;;;;;;5054804;28;19912;-85
2023/06/12 12:36:23;;;;;;;;;;;;;;;;;;5055216;28;19919;-86
2023/06/12 12:38:48;;;;;;;;;;;;;;;;;;5052946;28;19908;-86
2023/06/12 12:41:13;;;;;;;;;;;;;;;;;;5055043;28;19912;-86
2023/06/12 12:43:39;;;;;;;;;;;;;;;;;;5054471;28;19895;-84
2023/06/12 12:46:04;;;;;;;;;;;;;;;;;;5054921;28;19927;-86
2023/06/12 12:48:30;;;;;;;;;;;;;;;;;;5053094;28;19951;-86
2023/06/12 12:50:55;;;;;;;;;;;;;;;;;;5053415;28;20333;-86
2023/06/12 12:53:20;;;;;;;;;;;;;;;;;;5054628;28;19908;-85
2023/06/12 12:55:46;;;;;;;;;;;;;;;;;;5054812;28;19913;-86
2023/06/12 12:58:11;;;;;;;;;;;;;;;;;;5053779;28;20376;-86
2023/06/12 13:00:37;;;;;;;;;;;;;;;;;;5054884;28;19962;-85
2023/06/12 13:03:03;;;;;;;;;;;;;;;;;;5054036;28;19913;-85
2023/06/12 13:05:28;;;;;;;;;;;;;;;;;;5054691;28;20378;-85
2023/06/12 13:07:53;;;;;;;;;;;;;;;;;;5054285;28;19955;-85
2023/06/12 13:10:19;;;;;;;;;;;;;;;;;;5054858;28;20362;-85
2023/06/12 13:12:44;;;;;;;;;;;;;;;;;;5053696;28;19916;-85
2023/06/12 13:15:10;;;;;;;;;;;;;;;;;;5054709;28;19913;-85
2023/06/12 13:17:35;;;;;;;;;;;;;;;;;;5052525;28;20003;-85
2023/06/12 13:20:00;;;;;;;;;;;;;;;;;;5054781;28;19936;-85
2023/06/12 13:22:26;;;;;;;;;;;;;;;;;;5054146;28;19909;-85
2023/06/12 13:24:51;;;;;;;;;;;;;;;;;;5054132;28;20383;-85
2023/06/12 13:27:17;;;;;;;;;;;;;;;;;;5053029;28;19943;-85
2023/06/12 13:29:42;;;;;;;;;;;;;;;;;;5054522;28;19913;-85
2023/06/12 13:32:08;;;;;;;;;;;;;;;;;;5053987;28;19908;-85
2023/06/12 13:34:33;;;;;;;;;;;;;;;;;;5054859;28;19912;-85
2023/06/12 13:37:01;;;;;;;;;;;;;;;;;;5052559;28;19909;-84
2023/06/12 13:39:27;;;;;;;;;;;;;;;;;;5054258;28;19920;-85
2023/06/12 13:41:52;;;;;;;;;;;;;;;;;;5053813;28;19909;-85
2023/06/12 13:44:17;;;;;;;;;;;;;;;;;;5054123;28;19920;-85
2023/06/12 13:46:43;;;;;;;;;;;;;;;;;;5053733;28;19920;-85
2023/06/12 13:49:08;;;;;;;;;;;;;;;;;;5053385;28;19921;-85
2023/06/12 13:51:37;;;;;;;;;;;;;;;;;;5053507;28;20441;-86
2023/06/12 13:54:02;;;;;;;;;;;;;;;;;;5050102;28;19913;-85
2023/06/12 13:56:28;;;;;;;;;;;;;;;;;;5052082;28;19908;-85
2023/06/12 13:58:53;;;;;;;;;;;;;;;;;;5053494;28;19893;-85
2023/06/12 14:01:19;;;;;;;;;;;;;;;;;;5047487;28;19908;-85
2023/06/12 14:03:44;;;;;;;;;;;;;;;;;;5053436;28;20589;-85
2023/06/12 14:06:11;;;;;;;;;;;;;;;;;;5052972;28;19912;-86
2023/06/12 14:08:40;;;;;;;;;;;;;;;;;;5053965;28;19919;-87
2023/06/12 14:11:06;;;;;;;;;;;;;;;;;;5053661;28;19932;-85
2023/06/12 14:13:31;;;;;;;;;;;;;;;;;;5052166;28;19912;-85
2023/06/12 14:15:57;;;;;;;;;;;;;;;;;;5053307;28;19908;-85
2023/06/12 14:18:22;;;;;;;;;;;;;;;;;;5054147;28;19925;-85
2023/06/12 14:20:47;;;;;;;;;;;;;;;;;;5053766;28;19961;-85
2023/06/12 14:23:13;;;;;;;;;;;;;;;;;;5052378;28;19912;-85
2023/06/12 14:25:38;;;;;;;;;;;;;;;;;;5053117;28;19997;-85
2023/06/12 14:28:03;;;;;;;;;;;;;;;;;;5057146;28;19912;-85
2023/06/12 14:30:29;;;;;;;;;;;;;;;;;;5048015;28;19943;-85
2023/06/12 14:32:55;;;;;;;;;;;;;;;;;;5068885;28;19921;-85
2023/06/12 14:35:21;;;;;;;;;;;;;;;;;;5053352;28;20018;-85
2023/06/12 14:37:46;;;;;;;;;;;;;;;;;;5054228;28;19893;-85
2023/06/12 14:40:11;;;;;;;;;;;;;;;;;;5049526;28;19913;-85
2023/06/12 14:42:37;;;;;;;;;;;;;;;;;;5052385;28;20007;-85
2023/06/12 14:45:02;;;;;;;;;;;;;;;;;;5053333;28;19908;-86
2023/06/12 14:47:28;;;;;;;;;;;;;;;;;;5053721;28;20011;-86
2023/06/12 14:49:53;;;;;;;;;;;;;;;;;;5051728;28;19909;-86
2023/06/12 14:52:18;;;;;;;;;;;;;;;;;;5053215;28;19913;-86
2023/06/12 14:54:44;;;;;;;;;;;;;;;;;;5050899;28;20456;-85
2023/06/12 14:57:10;;;;;;;;;;;;;;;;;;5053014;28;20514;-85
2023/06/12 14:59:35;;;;;;;;;;;;;;;;;;5051474;28;19913;-85
2023/06/12 15:02:00;;;;;;;;;;;;;;;;;;5053021;28;19920;-85
2023/06/12 15:04:26;;;;;;;;;;;;;;;;;;5052233;28;19909;-85
2023/06/12 15:06:51;;;;;;;;;;;;;;;;;;5052709;28;19943;-85
2023/06/12 15:09:16;;;;;;;;;;;;;;;;;;5052081;28;19909;-85
2023/06/12 15:11:42;;;;;;;;;;;;;;;;;;5052785;28;19913;-85
2023/06/12 15:14:07;;;;;;;;;;;;;;;;;;5051858;28;19931;-84
2023/06/12 15:16:32;;;;;;;;;;;;;;;;;;5053362;28;19917;-84
2023/06/12 15:18:58;;;;;;;;;;;;;;;;;;5052700;28;19924;-85
2023/06/12 15:21:23;;;;;;;;;;;;;;;;;;5052019;28;19963;-84
2023/06/12 15:23:48;;;;;;;;;;;;;;;;;;5052718;28;19919;-84
2023/06/12 15:26:14;;;;;;;;;;;;;;;;;;5032074;28;19916;-86
2023/06/12 15:28:39;;;;;;;;;;;;;;;;;;5048818;28;20403;-85
2023/06/12 15:31:04;;;;;;;;;;;;;;;;;;5052979;28;19969;-84
2023/06/12 15:33:30;;;;;;;;;;;;;;;;;;5051601;28;20287;-84
2023/06/12 15:35:55;;;;;;;;;;;;;;;;;;5051694;28;19999;-85
2023/06/12 15:38:20;;;;;;;;;;;;;;;;;;5047480;28;19908;-85
2023/06/12 15:40:46;;;;;;;;;;;;;;;;;;5052259;28;19919;-85
2023/06/12 15:43:11;;;;;;;;;;;;;;;;;;5051912;28;19909;-85
2023/06/12 15:45:36;;;;;;;;;;;;;;;;;;5057301;28;20294;-86
2023/06/12 15:48:02;;;;;;;;;;;;;;;;;;5055922;28;20295;-85
2023/06/12 15:50:27;;;;;;;;;;;;;;;;;;5051611;28;19912;-85
2023/06/12 15:52:52;;;;;;;;;;;;;;;;;;5051640;28;20299;-85
2023/06/12 15:55:18;;;;;;;;;;;;;;;;;;5051830;28;19912;-84
2023/06/12 15:57:43;;;;;;;;;;;;;;;;;;5049861;28;19916;-86
2023/06/12 16:00:09;;;;;;;;;;;;;;;;;;5051985;28;19912;-85
2023/06/12 16:02:34;;;;;;;;;;;;;;;;;;5048687;28;19956;-85
2023/06/12 16:04:59;;;;;;;;;;;;;;;;;;5067038;28;19958;-85
2023/06/12 16:07:25;;;;;;;;;;;;;;;;;;5051243;28;19912;-86
2023/06/12 16:09:50;;;;;;;;;;;;;;;;;;5050855;28;19912;-85
2023/06/12 16:12:15;;;;;;;;;;;;;;;;;;5050838;28;20291;-85
2023/06/12 16:14:41;;;;;;;;;;;;;;;;;;5052707;28;19912;-86
2023/06/12 16:17:06;;;;;;;;;;;;;;;;;;5049518;28;19909;-84
2023/06/12 16:19:32;;;;;;;;;;;;;;;;;;5053525;28;19921;-87
2023/06/12 16:21:57;;;;;;;;;;;;;;;;;;5056158;28;19912;-86
2023/06/12 16:24:22;;;;;;;;;;;;;;;;;;5051020;28;20003;-86
2023/06/12 16:26:48;;;;;;;;;;;;;;;;;;5050403;28;20399;-85
2023/06/12 16:29:13;;;;;;;;;;;;;;;;;;5050057;28;19969;-86
2023/06/12 16:31:38;;;;;;;;;;;;;;;;;;5057755;28;19908;-86
2023/06/12 16:34:04;;;;;;;;;;;;;;;;;;5050810;28;19963;-85
2023/06/12 16:36:29;;;;;;;;;;;;;;;;;;5044469;28;19909;-85